Time;durP1;ratioP1;P1;durP2;ratioP2;P2;SDS_P1;SDS_P2;PMS_P1;PMS_P2;Temp;Humidity;BMP_temperature;BMP_pressure;BME280_temperature;BME280_humidity;BME280_pressure;Samples;Min_cycle;Max_cycle;Signal;HPM_P1;HPM_P2
2021/09/22 00:01:51;;;;;;;24.67;15.77;;;;;;;12.10;100.00;101647.56;2615345;31;20030;-45
2021/09/22 00:04:19;;;;;;;28.17;16.73;;;;;;;12.09;100.00;101644.13;2615080;36;20037;-43
2021/09/22 00:06:46;;;;;;;31.45;18.08;;;;;;;12.07;100.00;101642.34;2615481;31;20034;-43
2021/09/22 00:09:13;;;;;;;27.42;17.20;;;;;;;12.06;100.00;101644.03;2615927;31;20031;-42
2021/09/22 00:11:41;;;;;;;27.42;17.00;;;;;;;12.06;100.00;101638.00;2614503;36;20037;-45
2021/09/22 00:14:08;;;;;;;30.77;19.27;;;;;;;12.05;100.00;101637.16;2616835;36;20065;-45
2021/09/22 00:16:35;;;;;;;29.80;17.50;;;;;;;12.04;100.00;101642.25;2619110;36;20560;-47
2021/09/22 00:19:03;;;;;;;30.10;16.38;;;;;;;12.01;100.00;101644.69;2618396;36;20530;-47
2021/09/22 00:21:30;;;;;;;21.60;13.57;;;;;;;11.95;100.00;101640.22;2615682;36;20462;-43
2021/09/22 00:23:57;;;;;;;29.35;13.57;;;;;;;11.96;100.00;101644.53;2615004;36;20049;-44
2021/09/22 00:26:24;;;;;;;26.60;13.68;;;;;;;11.94;100.00;101641.91;2615490;31;20035;-45
2021/09/22 00:28:51;;;;;;;25.23;12.30;;;;;;;11.92;100.00;101637.53;2614952;36;20042;-42
2021/09/22 00:31:19;;;;;;;21.10;12.32;;;;;;;11.92;100.00;101642.66;2615602;31;20054;-42
2021/09/22 00:33:46;;;;;;;21.58;13.55;;;;;;;11.96;100.00;101639.41;2615169;36;20626;-42
2021/09/22 00:36:13;;;;;;;23.63;13.55;;;;;;;12.00;100.00;101640.38;2615013;36;20042;-52
2021/09/22 00:38:40;;;;;;;28.17;15.65;;;;;;;12.02;100.00;101646.44;2615798;31;20053;-43
2021/09/22 00:41:08;;;;;;;25.63;15.65;;;;;;;12.04;100.00;101637.09;2614979;36;20038;-44
2021/09/22 00:43:35;;;;;;;25.75;15.80;;;;;;;12.04;100.00;101639.66;2614955;31;20759;-43
2021/09/22 00:46:05;;;;;;;28.75;16.20;;;;;;;12.04;100.00;101637.09;2614905;36;20038;-42
2021/09/22 00:48:34;;;;;;;37.40;18.45;;;;;;;12.03;100.00;101648.19;2614663;36;20537;-43
2021/09/22 00:51:05;;;;;;;30.00;17.58;;;;;;;12.00;100.00;101635.25;2614843;36;20030;-43
2021/09/22 00:53:33;;;;;;;30.35;18.15;;;;;;;11.94;100.00;101646.19;2615125;31;20034;-46
2021/09/22 00:56:05;;;;;;;33.13;18.15;;;;;;;11.84;100.00;101637.28;2615038;31;20058;-42
2021/09/22 00:58:32;;;;;;;30.67;18.98;;;;;;;11.80;100.00;101642.22;2614612;36;20030;-49
2021/09/22 01:01:00;;;;;;;36.88;18.58;;;;;;;11.82;100.00;101640.56;2615914;31;20023;-43
2021/09/22 01:03:28;;;;;;;33.70;19.60;;;;;;;11.78;100.00;101633.56;2615845;31;20623;-43
2021/09/22 01:05:57;;;;;;;35.15;18.50;;;;;;;11.71;100.00;101637.63;2615599;31;20030;-46
2021/09/22 01:08:24;;;;;;;30.75;17.85;;;;;;;11.65;100.00;101637.41;2614634;36;20034;-49
2021/09/22 01:10:52;;;;;;;29.80;17.35;;;;;;;11.61;100.00;101632.97;2615192;31;20022;-44
2021/09/22 01:13:19;;;;;;;30.98;17.33;;;;;;;11.57;100.00;101636.25;2615040;31;20038;-42
2021/09/22 01:15:47;;;;;;;35.60;18.02;;;;;;;11.50;100.00;101632.56;2614653;31;20061;-43
2021/09/22 01:18:19;;;;;;;37.60;18.92;;;;;;;11.45;100.00;101640.09;2614787;36;20026;-44
2021/09/22 01:20:51;;;;;;;26.65;17.75;;;;;;;11.47;100.00;101633.34;2615042;36;20038;-44
2021/09/22 01:23:18;;;;;;;37.28;19.90;;;;;;;11.42;100.00;101627.19;2614889;36;20555;-43
2021/09/22 01:25:48;;;;;;;33.53;18.02;;;;;;;11.41;100.00;101635.66;2615026;36;20065;-46
2021/09/22 01:28:25;;;;;;;37.58;18.83;;;;;;;11.41;100.00;101635.66;2614580;31;20042;-47
2021/09/22 01:30:53;;;;;;;37.55;17.42;;;;;;;11.41;100.00;101637.34;2614808;36;20030;-43
2021/09/22 01:33:23;;;;;;;33.63;17.27;;;;;;;11.47;100.00;101643.59;2614791;36;20042;-43
2021/09/22 01:35:51;;;;;;;38.38;17.80;;;;;;;11.56;100.00;101642.22;2615585;31;20613;-42
2021/09/22 01:38:28;;;;;;;35.95;16.13;;;;;;;11.58;100.00;101640.56;2614548;36;20031;-42
2021/09/22 01:40:56;;;;;;;29.52;15.80;;;;;;;11.61;100.00;101641.56;2614812;31;20034;-45
2021/09/22 01:43:26;;;;;;;33.00;15.65;;;;;;;11.64;100.00;101639.06;2615156;36;20491;-44
2021/09/22 01:45:53;;;;;;;30.10;15.43;;;;;;;11.70;100.00;101644.44;2615936;31;20030;-43
2021/09/22 01:48:20;;;;;;;44.95;16.05;;;;;;;11.73;100.00;101644.53;2614765;31;20057;-44
2021/09/22 01:50:48;;;;;;;29.02;13.93;;;;;;;11.79;100.00;101650.75;2614228;36;20030;-44
2021/09/22 01:53:16;;;;;;;31.80;13.38;;;;;;;11.81;100.00;101652.53;2614341;31;20546;-45
2021/09/22 01:55:44;;;;;;;30.77;13.88;;;;;;;11.83;100.00;101650.94;2614123;31;20034;-47
2021/09/22 01:58:12;;;;;;;29.52;14.07;;;;;;;11.84;100.00;101656.94;2613947;31;20030;-45
2021/09/22 02:00:40;;;;;;;29.52;13.57;;;;;;;11.82;100.00;101656.88;2613925;36;20077;-47
2021/09/22 02:03:07;;;;;;;31.10;14.05;;;;;;;11.78;100.00;101654.97;2614195;31;20053;-44
2021/09/22 02:05:35;;;;;;;29.40;11.80;;;;;;;11.75;100.00;101659.16;2614456;36;20023;-43
2021/09/22 02:08:02;;;;;;;34.85;13.52;;;;;;;11.75;100.00;101659.16;2613737;36;20035;-44
2021/09/22 02:10:30;;;;;;;36.17;13.80;;;;;;;11.76;100.00;101650.63;2613790;36;20035;-45
2021/09/22 02:12:57;;;;;;;30.88;14.38;;;;;;;11.76;100.00;101654.06;2614896;31;20030;-44
2021/09/22 02:15:24;;;;;;;30.08;13.15;;;;;;;11.77;100.00;101653.22;2615010;31;20038;-44
2021/09/22 02:17:52;;;;;;;30.15;14.57;;;;;;;11.78;100.00;101643.84;2613654;36;20506;-44
2021/09/22 02:20:19;;;;;;;29.08;13.35;;;;;;;11.79;100.00;101651.63;2614050;36;20034;-44
2021/09/22 02:22:51;;;;;;;31.05;13.70;;;;;;;11.83;100.00;101644.91;2614513;31;20073;-44
2021/09/22 02:25:20;;;;;;;35.10;13.50;;;;;;;11.83;100.00;101637.22;2613973;36;20027;-46
2021/09/22 02:27:48;;;;;;;39.95;13.25;;;;;;;11.81;100.00;101633.69;2614609;31;20042;-45
2021/09/22 02:30:19;;;;;;;34.40;13.70;;;;;;;11.79;100.00;101625.09;2615472;31;20450;-45
2021/09/22 02:32:47;;;;;;;36.08;12.82;;;;;;;11.77;100.00;101630.13;2614693;36;20039;-43
2021/09/22 02:35:15;;;;;;;32.17;12.85;;;;;;;11.78;100.00;101628.44;2616255;36;20490;-48
2021/09/22 02:37:42;;;;;;;36.85;13.90;;;;;;;11.78;100.00;101631.88;2614563;36;20031;-48
2021/09/22 02:40:14;;;;;;;35.10;13.32;;;;;;;11.78;100.00;101638.72;2615112;31;20946;-47
2021/09/22 02:42:44;;;;;;;28.17;12.93;;;;;;;11.78;100.00;101638.72;2614915;36;20045;-46
2021/09/22 02:45:12;;;;;;;33.38;12.27;;;;;;;11.83;100.00;101638.09;2614995;36;20031;-45
2021/09/22 02:47:41;;;;;;;28.58;11.65;;;;;;;11.83;100.00;101638.09;2614841;31;20043;-48
2021/09/22 02:50:09;;;;;;;22.40;10.23;;;;;;;11.83;100.00;101640.69;2616073;31;20613;-43
2021/09/22 02:52:36;;;;;;;27.67;10.60;;;;;;;11.84;100.00;101644.13;2616475;31;20476;-47
2021/09/22 02:55:04;;;;;;;35.20;10.07;;;;;;;11.84;100.00;101644.97;2615118;36;20042;-45
2021/09/22 02:57:31;;;;;;;26.88;9.50;;;;;;;11.87;100.00;101642.50;2615128;36;20041;-45
2021/09/22 02:59:59;;;;;;;29.40;9.75;;;;;;;11.91;100.00;101644.38;2615837;36;20041;-45
2021/09/22 03:02:26;;;;;;;29.65;9.68;;;;;;;11.93;100.00;101642.75;2615834;31;20038;-46
2021/09/22 03:04:53;;;;;;;23.52;9.20;;;;;;;12.00;100.00;101648.09;2616157;31;20031;-49
2021/09/22 03:07:20;;;;;;;22.67;7.68;;;;;;;11.98;100.00;101646.34;2617255;31;20031;-45
2021/09/22 03:09:48;;;;;;;26.02;7.57;;;;;;;12.00;100.00;101646.38;2616229;31;20030;-45
2021/09/22 03:12:15;;;;;;;26.20;8.80;;;;;;;11.95;100.00;101648.78;2615872;31;20434;-45
2021/09/22 03:14:42;;;;;;;26.67;8.10;;;;;;;11.96;100.00;101641.97;2615396;36;20450;-48
2021/09/22 03:17:09;;;;;;;29.30;7.53;;;;;;;11.97;100.00;101647.16;2615300;31;20030;-46
2021/09/22 03:19:37;;;;;;;30.90;8.65;;;;;;;12.01;100.00;101642.13;2615050;31;20358;-47
2021/09/22 03:22:04;;;;;;;24.13;7.78;;;;;;;12.02;100.00;101655.03;2615335;36;20037;-47
2021/09/22 03:24:32;;;;;;;35.15;6.95;;;;;;;12.05;100.00;101656.81;2615193;31;20031;-46
2021/09/22 03:26:59;;;;;;;20.20;7.75;;;;;;;12.04;100.00;101658.50;2614857;36;20034;-47
2021/09/22 03:29:26;;;;;;;24.73;6.63;;;;;;;12.03;100.00;101661.03;2615680;36;20038;-49
2021/09/22 03:31:53;;;;;;;22.00;7.57;;;;;;;12.00;100.00;101669.50;2615189;36;20042;-47
2021/09/22 03:34:20;;;;;;;19.15;6.75;;;;;;;12.00;100.00;101678.88;2616419;31;20019;-45
2021/09/22 03:36:47;;;;;;;21.02;7.15;;;;;;;11.96;100.00;101677.91;2616389;31;20442;-45
2021/09/22 03:39:14;;;;;;;30.52;7.38;;;;;;;11.95;100.00;101679.59;2616158;31;20038;-45
2021/09/22 03:41:41;;;;;;;28.73;6.60;;;;;;;11.96;100.00;101676.19;2615166;36;20027;-49
2021/09/22 03:44:09;;;;;;;25.27;6.50;;;;;;;11.95;100.00;101682.16;2615201;36;20042;-47
2021/09/22 03:46:36;;;;;;;23.40;6.70;;;;;;;11.99;100.00;101683.16;2616384;31;20038;-45
2021/09/22 03:49:03;;;;;;;26.58;6.80;;;;;;;11.99;100.00;101680.59;2615221;36;20574;-45
2021/09/22 03:51:30;;;;;;;24.67;6.43;;;;;;;12.00;100.00;101684.03;2617409;31;20577;-49
2021/09/22 03:53:57;;;;;;;20.75;6.32;;;;;;;12.00;100.00;101695.16;2615740;36;20030;-48
2021/09/22 03:56:24;;;;;;;26.20;5.68;;;;;;;11.98;100.00;101683.97;2616256;31;20038;-44
2021/09/22 03:58:51;;;;;;;29.02;6.78;;;;;;;11.99;100.00;101680.59;2615171;36;20589;-45
2021/09/22 04:01:18;;;;;;;26.80;6.25;;;;;;;11.99;100.00;101680.59;2615788;31;20558;-49
2021/09/22 04:03:47;;;;;;;22.23;6.15;;;;;;;11.99;100.00;101690.84;2615663;31;20628;-47
2021/09/22 04:06:14;;;;;;;27.17;6.05;;;;;;;11.99;100.00;101690.84;2615830;36;20038;-44
2021/09/22 04:08:41;;;;;;;26.77;6.38;;;;;;;12.00;100.00;101689.16;2615530;31;20053;-48
2021/09/22 04:11:09;;;;;;;24.88;5.65;;;;;;;12.00;100.00;101684.03;2614944;36;20031;-44
2021/09/22 04:13:36;;;;;;;28.73;5.40;;;;;;;11.98;100.00;101694.25;2614998;36;20035;-44
2021/09/22 04:16:05;;;;;;;33.97;6.30;;;;;;;11.96;100.00;101695.88;2615556;31;20031;-43
2021/09/22 04:18:33;;;;;;;22.67;6.15;;;;;;;11.95;100.00;101702.69;2614776;36;20609;-45
2021/09/22 04:21:00;;;;;;;29.65;6.70;;;;;;;11.97;100.00;101702.75;2615394;31;20035;-48
2021/09/22 04:23:27;;;;;;;20.45;5.60;;;;;;;11.96;100.00;101704.44;2615331;36;20059;-48
2021/09/22 04:25:54;;;;;;;26.80;6.32;;;;;;;11.95;100.00;101705.25;2614932;36;20034;-45
2021/09/22 04:28:22;;;;;;;29.98;5.60;;;;;;;11.95;100.00;101710.41;2614545;36;20054;-47
2021/09/22 04:30:49;;;;;;;25.02;6.72;;;;;;;11.95;100.00;101712.97;2614488;31;20027;-45
2021/09/22 04:33:17;;;;;;;24.65;5.47;;;;;;;11.93;100.00;101712.06;2614895;31;20038;-49
2021/09/22 04:35:48;;;;;;;26.50;6.20;;;;;;;11.94;100.00;101712.91;2615040;31;20121;-48
2021/09/22 04:38:16;;;;;;;25.35;5.82;;;;;;;11.92;100.00;101707.75;2616225;31;20030;-45
2021/09/22 04:40:45;;;;;;;26.92;5.32;;;;;;;11.91;100.00;101712.81;2614878;36;20034;-45
2021/09/22 04:43:13;;;;;;;19.17;5.03;;;;;;;11.91;100.00;101721.38;2617853;31;20038;-43
2021/09/22 04:45:47;;;;;;;20.45;5.35;;;;;;;11.91;100.00;101721.38;2614860;31;20673;-50
2021/09/22 04:48:21;;;;;;;20.90;5.35;;;;;;;11.93;100.00;101736.84;2614464;36;20038;-47
2021/09/22 04:50:48;;;;;;;35.85;6.47;;;;;;;11.92;100.00;101727.38;2614923;31;20027;-48
2021/09/22 04:53:15;;;;;;;29.10;7.00;;;;;;;11.91;100.00;101734.19;2615650;31;20404;-46
2021/09/22 04:55:43;;;;;;;27.63;6.75;;;;;;;11.91;100.00;101739.34;2614956;31;20026;-47
2021/09/22 04:58:10;;;;;;;23.83;5.60;;;;;;;11.90;100.00;101739.28;2614878;36;20037;-46
2021/09/22 05:00:37;;;;;;;22.63;5.65;;;;;;;11.90;100.00;101737.59;2615059;36;20034;-47
2021/09/22 05:03:05;;;;;;;24.73;6.07;;;;;;;11.89;100.00;101743.56;2614470;31;20649;-45
2021/09/22 05:05:33;;;;;;;25.33;6.05;;;;;;;11.89;100.00;101752.94;2614357;36;20034;-47
2021/09/22 05:08:00;;;;;;;24.88;5.68;;;;;;;11.88;100.00;101749.50;2614255;31;20068;-46
2021/09/22 05:10:27;;;;;;;27.10;7.18;;;;;;;11.86;100.00;101746.00;2614493;31;20041;-45
2021/09/22 05:12:57;;;;;;;23.98;5.20;;;;;;;11.89;100.00;101746.13;2578723;31;2004382;-47
2021/09/22 05:15:25;;;;;;;31.67;6.40;;;;;;;11.90;100.00;101742.72;2614813;36;20034;-46
2021/09/22 05:17:54;;;;;;;20.15;5.70;;;;;;;11.93;100.00;101735.16;2613679;36;20034;-45
2021/09/22 05:20:21;;;;;;;21.05;6.18;;;;;;;11.97;100.00;101738.69;2614922;36;20585;-48
2021/09/22 05:22:49;;;;;;;27.63;6.53;;;;;;;11.98;100.00;101737.88;2615372;31;20434;-45
2021/09/22 05:25:16;;;;;;;28.80;6.10;;;;;;;12.01;100.00;101745.69;2614695;31;20041;-47
2021/09/22 05:27:46;;;;;;;30.58;7.07;;;;;;;12.04;100.00;101740.66;2614633;36;20030;-49
2021/09/22 05:30:23;;;;;;;24.77;6.50;;;;;;;12.09;100.00;101751.09;2624435;36;20633;-49
2021/09/22 05:32:50;;;;;;;26.98;6.97;;;;;;;12.07;100.00;101740.78;2615119;36;20419;-43
2021/09/22 05:35:35;;;;;;;27.52;6.72;;;;;;;12.12;100.00;101753.78;2577280;31;2004603;-48
2021/09/22 05:38:03;;;;;;;28.08;6.60;;;;;;;12.16;100.00;101761.66;2614422;36;20394;-44
2021/09/22 05:40:32;;;;;;;28.17;6.07;;;;;;;12.16;100.00;101765.94;2614561;31;20035;-48
2021/09/22 05:42:59;;;;;;;28.02;7.90;;;;;;;12.21;100.00;101764.41;2614407;31;20030;-45
2021/09/22 05:45:26;;;;;;;27.63;6.78;;;;;;;12.18;100.00;101762.59;2614896;31;20033;-46
2021/09/22 05:47:53;;;;;;;25.27;6.40;;;;;;;12.24;100.00;101767.06;2613880;36;20042;-43
2021/09/22 05:50:21;;;;;;;28.20;6.22;;;;;;;12.27;100.00;101772.31;2614704;31;20030;-44
2021/09/22 05:52:48;;;;;;;25.02;5.72;;;;;;;12.36;100.00;101766.63;2614556;31;20062;-42
2021/09/22 05:55:15;;;;;;;28.98;6.07;;;;;;;12.33;100.00;101769.97;2614758;31;20042;-49
2021/09/22 05:57:42;;;;;;;28.02;6.60;;;;;;;12.27;100.00;101768.88;2613380;36;20042;-43
2021/09/22 06:00:10;;;;;;;26.52;6.72;;;;;;;12.38;100.00;101776.13;2613707;31;20035;-51
2021/09/22 06:02:37;;;;;;;24.83;7.18;;;;;;;12.40;100.00;101771.06;2613200;36;20034;-47
2021/09/22 06:05:05;;;;;;;23.33;6.53;;;;;;;12.46;100.00;101779.00;2613459;31;20030;-44
2021/09/22 06:07:32;;;;;;;28.85;6.65;;;;;;;12.49;100.00;101779.97;2613990;36;20078;-43
2021/09/22 06:10:00;;;;;;;31.67;7.35;;;;;;;12.45;100.00;101783.25;2614040;31;20030;-45
2021/09/22 06:12:27;;;;;;;28.17;7.15;;;;;;;12.58;100.00;101786.25;2614867;31;20031;-46
2021/09/22 06:14:54;;;;;;;24.65;7.03;;;;;;;12.50;100.00;101780.84;2615112;36;20038;-45
2021/09/22 06:17:21;;;;;;;24.45;7.78;;;;;;;12.48;100.00;101785.06;2615662;36;20022;-47
2021/09/22 06:19:48;;;;;;;29.52;7.88;;;;;;;12.46;100.00;101781.56;2615601;36;20158;-44
2021/09/22 06:22:22;;;;;;;32.47;7.70;;;;;;;12.58;100.00;101786.25;2615229;31;20046;-42
2021/09/22 06:24:51;;;;;;;27.75;7.88;;;;;;;12.55;100.00;101784.44;2615385;36;20018;-43
2021/09/22 06:27:18;;;;;;;26.40;7.30;;;;;;;12.57;100.00;101787.97;2614905;36;20278;-42
2021/09/22 06:29:45;;;;;;;25.88;7.43;;;;;;;12.57;100.00;101787.06;2614842;36;20026;-46
2021/09/22 06:32:13;;;;;;;29.35;7.05;;;;;;;12.68;100.00;101790.91;2615311;31;20034;-51
2021/09/22 06:34:40;;;;;;;29.73;7.45;;;;;;;12.69;100.00;101793.50;2614911;36;20166;-42
2021/09/22 06:37:08;;;;;;;19.30;6.13;;;;;;;12.72;100.00;101785.03;2615376;31;20030;-43
2021/09/22 06:39:35;;;;;;;31.42;7.47;;;;;;;12.80;100.00;101788.72;2615012;31;20041;-44
2021/09/22 06:42:03;;;;;;;27.08;7.18;;;;;;;12.72;100.00;101790.19;2615163;36;20034;-46
2021/09/22 06:44:30;;;;;;;26.80;7.40;;;;;;;12.71;100.00;101790.97;2614832;36;20030;-44
2021/09/22 06:46:57;;;;;;;27.15;7.03;;;;;;;12.77;100.00;101796.34;2616035;31;20446;-44
2021/09/22 06:49:24;;;;;;;24.60;6.80;;;;;;;12.75;100.00;101811.72;2615355;36;20042;-42
2021/09/22 06:51:52;;;;;;;28.23;7.28;;;;;;;12.71;100.00;101807.31;2615053;36;20026;-46
2021/09/22 06:54:19;;;;;;;31.50;6.72;;;;;;;12.83;100.00;101813.69;2615425;31;20030;-43
2021/09/22 06:56:46;;;;;;;21.48;6.32;;;;;;;12.69;100.00;101818.34;2615215;36;20041;-44
2021/09/22 06:59:13;;;;;;;26.85;7.18;;;;;;;12.74;100.00;101814.22;2614823;36;20561;-44
2021/09/22 07:01:40;;;;;;;32.22;7.65;;;;;;;12.77;100.00;101824.63;2616163;36;20427;-45
2021/09/22 07:04:08;;;;;;;28.08;7.45;;;;;;;12.66;100.00;101823.34;2614965;36;20035;-44
2021/09/22 07:06:35;;;;;;;25.50;7.25;;;;;;;12.61;100.00;101817.19;2614475;36;20046;-44
2021/09/22 07:09:03;;;;;;;31.27;6.88;;;;;;;12.68;100.00;101816.59;2614907;31;20023;-49
2021/09/22 07:11:30;;;;;;;24.52;7.82;;;;;;;12.67;100.00;101822.56;2615796;36;20046;-45
2021/09/22 07:13:58;;;;;;;24.95;7.13;;;;;;;12.70;100.00;101826.09;2615044;31;20030;-42
2021/09/22 07:16:25;;;;;;;24.77;7.53;;;;;;;12.74;100.00;101820.25;2615012;36;20027;-51
2021/09/22 07:18:53;;;;;;;27.70;7.88;;;;;;;12.75;100.00;101828.81;2614801;36;20518;-45
2021/09/22 07:21:20;;;;;;;25.75;7.78;;;;;;;12.70;100.00;101833.81;2615322;36;20031;-43
2021/09/22 07:23:47;;;;;;;27.10;7.90;;;;;;;12.70;100.00;101828.66;2615113;36;20034;-49
2021/09/22 09:54:53;;;;;;;21.60;6.38;;;;;;;16.49;100.00;101868.50;2613928;36;20031;-50
2021/09/22 09:57:21;;;;;;;29.67;9.23;;;;;;;16.83;100.00;101869.22;2614171;36;20038;-43
2021/09/22 09:59:52;;;;;;;20.67;5.47;;;;;;;17.13;96.41;101874.94;2614856;31;20039;-52
2021/09/22 10:02:35;;;;;;;18.85;5.43;;;;;;;17.10;98.93;101872.31;2614850;36;20031;-46
2021/09/22 10:05:04;;;;;;;24.10;6.97;;;;;;;17.24;96.89;101872.53;2579038;31;2004341;-45
2021/09/22 10:07:35;;;;;;;16.67;4.90;;;;;;;17.22;95.31;101874.22;2614721;31;20035;-47
2021/09/22 10:10:08;;;;;;;20.40;5.07;;;;;;;16.85;96.16;101870.09;2614635;31;20038;-46
2021/09/22 10:12:36;;;;;;;22.00;5.85;;;;;;;16.89;95.55;101871.91;2614768;31;20034;-44
2021/09/22 10:15:04;;;;;;;16.48;5.00;;;;;;;16.97;96.13;101870.34;2614401;36;20042;-44
2021/09/22 10:17:33;;;;;;;17.42;5.78;;;;;;;16.61;94.29;101871.34;2614092;31;20030;-44
2021/09/22 10:20:01;;;;;;;21.83;5.32;;;;;;;16.17;99.20;101870.41;2614539;31;20035;-43
2021/09/22 10:22:29;;;;;;;20.42;4.97;;;;;;;16.01;100.00;101876.97;2614333;36;20042;-44
2021/09/22 10:24:56;;;;;;;24.08;5.13;;;;;;;15.99;100.00;101874.38;2616348;36;20035;-44
2021/09/22 10:27:24;;;;;;;23.13;5.28;;;;;;;15.83;100.00;101868.81;2620718;31;20029;-46
2021/09/22 10:30:02;;;;;;;22.38;5.72;;;;;;;15.84;100.00;101862.78;2620375;31;20042;-50
2021/09/22 10:32:40;;;;;;;22.15;5.45;;;;;;;15.91;100.00;101870.72;2579668;31;2004366;-49
2021/09/22 10:35:20;;;;;;;20.40;5.60;;;;;;;16.22;100.00;101863.63;2617927;31;20589;-44
2021/09/22 10:37:48;;;;;;;22.90;4.97;;;;;;;16.13;100.00;101866.00;2613983;36;20042;-43
2021/09/22 10:40:19;;;;;;;20.20;5.18;;;;;;;16.43;100.00;101866.69;2614108;36;20038;-50
2021/09/22 10:42:47;;;;;;;20.92;4.63;;;;;;;16.59;97.77;101864.38;2614514;31;20446;-48
2021/09/22 10:45:22;;;;;;;19.25;5.55;;;;;;;17.43;96.83;101861.66;2613113;36;20604;-46
2021/09/22 10:47:50;;;;;;;19.25;4.97;;;;;;;17.35;94.97;101860.66;2613639;36;20407;-47
2021/09/22 10:50:38;;;;;;;17.25;4.55;;;;;;;17.56;95.99;101861.00;2614614;31;20034;-48
2021/09/22 10:53:45;;;;;;;20.02;5.65;;;;;;;17.28;95.67;101856.19;2578533;36;2004376;-44
2021/09/22 10:56:15;;;;;;;16.13;4.60;;;;;;;16.95;92.97;101857.34;2577586;36;2004458;-44
2021/09/22 10:58:52;;;;;;;19.50;5.32;;;;;;;16.86;97.30;101848.56;2613289;36;20050;-43
2021/09/22 11:01:32;;;;;;;19.33;4.68;;;;;;;16.36;97.92;101844.13;2614533;36;20066;-50
2021/09/22 11:04:02;;;;;;;20.98;5.07;;;;;;;16.70;99.18;101848.25;2615336;31;20030;-46
2021/09/22 11:06:44;;;;;;;18.58;4.40;;;;;;;16.89;97.41;101854.66;2615959;36;20838;-43
2021/09/22 11:09:18;;;;;;;16.17;5.07;;;;;;;16.92;96.89;101852.16;2578862;36;2004646;-48
2021/09/22 11:14:27;;;;;;;16.88;4.00;;;;;;;16.91;94.31;101855.56;2614973;36;20034;-47
2021/09/22 11:16:56;;;;;;;18.67;5.22;;;;;;;17.17;90.12;101857.75;2616311;31;20057;-47
2021/09/22 11:19:24;;;;;;;20.02;4.15;;;;;;;17.40;89.47;101852.97;2615343;36;20054;-52
2021/09/22 11:21:52;;;;;;;19.88;4.50;;;;;;;17.25;90.31;101849.28;2615561;36;20553;-47
2021/09/22 11:24:23;;;;;;;19.08;4.50;;;;;;;17.36;94.39;101848.56;2615514;31;20058;-43
2021/09/22 11:26:53;;;;;;;19.08;4.57;;;;;;;17.62;88.56;101849.88;2616005;31;20041;-46
2021/09/22 11:29:35;;;;;;;19.95;4.05;;;;;;;17.77;91.45;101850.13;2615503;31;21478;-48
2021/09/22 11:32:08;;;;;;;16.42;3.80;;;;;;;18.02;89.48;101847.88;2578848;36;2004379;-51
2021/09/22 11:34:39;;;;;;;19.88;4.38;;;;;;;17.55;88.53;101833.34;2615704;31;20030;-45
2021/09/22 11:37:12;;;;;;;18.40;3.67;;;;;;;17.58;87.70;101826.47;2616591;31;20061;-45
2021/09/22 11:39:42;;;;;;;16.02;4.25;;;;;;;18.02;88.71;101829.72;2614477;31;20053;-44
2021/09/22 11:42:11;;;;;;;18.63;4.22;;;;;;;18.25;85.04;101832.59;2631216;31;20034;-44
2021/09/22 11:44:39;;;;;;;23.52;5.00;;;;;;;18.26;84.54;101829.19;2614910;36;20035;-46
2021/09/22 11:47:09;;;;;;;14.25;3.45;;;;;;;18.73;81.68;101832.34;2615808;31;20074;-43
2021/09/22 11:49:39;;;;;;;14.23;4.00;;;;;;;19.10;79.44;101827.50;2616203;31;20034;-45
2021/09/22 11:52:33;;;;;;;21.10;4.25;;;;;;;19.50;79.27;101822.59;2615317;36;20022;-43
2021/09/22 11:55:05;;;;;;;13.20;3.65;;;;;;;19.19;78.79;101824.13;2614272;36;20560;-44
2021/09/22 11:57:33;;;;;;;11.80;2.97;;;;;;;19.12;78.14;101823.19;2577089;36;2004582;-49
2021/09/22 12:00:00;;;;;;;16.35;3.65;;;;;;;19.44;75.87;101812.19;2613741;36;20065;-42
2021/09/22 12:02:29;;;;;;;15.52;3.22;;;;;;;19.63;76.74;101816.66;2613989;36;20038;-46
2021/09/22 12:04:58;;;;;;;13.75;3.85;;;;;;;20.01;77.32;101822.09;2614630;31;20037;-45
2021/09/22 12:07:31;;;;;;;17.25;4.00;;;;;;;19.81;78.24;101821.97;2615787;36;20077;-41
2021/09/22 12:10:01;;;;;;;14.55;3.90;;;;;;;19.04;77.29;101817.94;2615292;31;20035;-45
2021/09/22 12:12:33;;;;;;;14.35;3.22;;;;;;;20.17;73.01;101822.16;2614967;36;20035;-48
2021/09/22 12:15:02;;;;;;;12.57;3.17;;;;;;;19.88;70.20;101820.31;2579035;31;2004361;-45
2021/09/22 12:17:38;;;;;;;18.23;3.30;;;;;;;19.80;70.36;101816.78;2615851;36;20120;-43
2021/09/22 12:20:16;;;;;;;12.32;3.45;;;;;;;20.10;69.75;101821.25;2578925;31;2004399;-43
2021/09/22 12:22:45;;;;;;;14.90;3.25;;;;;;;20.42;66.07;101816.16;2615179;31;20035;-43
2021/09/22 12:25:17;;;;;;;19.77;3.85;;;;;;;20.36;67.78;101813.56;2614345;36;20057;-45
2021/09/22 12:27:52;;;;;;;13.88;3.22;;;;;;;20.20;68.65;101810.06;2614987;31;20023;-49
2021/09/22 12:30:33;;;;;;;11.73;2.88;;;;;;;19.85;69.26;101812.47;2614296;36;20570;-44
2021/09/22 12:33:06;;;;;;;11.52;3.50;;;;;;;19.69;72.85;101811.53;2615212;36;20485;-44
2021/09/22 12:35:39;;;;;;;9.60;3.67;;;;;;;19.90;69.35;101809.91;2579147;36;2004595;-42
2021/09/22 12:38:08;;;;;;;15.63;3.22;;;;;;;19.92;68.79;101800.38;2615280;31;20030;-44
2021/09/22 12:40:48;;;;;;;15.45;3.50;;;;;;;20.65;68.54;101799.78;2615190;36;20034;-47
2021/09/22 12:43:28;;;;;;;10.80;2.90;;;;;;;20.66;66.49;101797.22;2614898;36;20550;-43
2021/09/22 12:46:11;;;;;;;16.25;3.65;;;;;;;20.48;65.39;101795.44;2614867;36;20563;-51
2021/09/22 12:48:40;;;;;;;13.73;3.13;;;;;;;20.33;68.48;101796.19;2578583;36;2004394;-42
2021/09/22 12:51:17;;;;;;;12.52;3.50;;;;;;;20.45;67.63;101794.50;2614802;31;20031;-50
2021/09/22 12:53:44;;;;;;;15.35;3.40;;;;;;;20.64;68.83;101796.31;2614838;36;20581;-45
2021/09/22 12:56:19;;;;;;;12.05;3.10;;;;;;;19.98;69.32;101787.41;2614717;31;20063;-45
2021/09/22 12:58:47;;;;;;;11.57;3.47;;;;;;;19.69;69.33;101792.44;2614837;31;20038;-47
2021/09/22 13:01:15;;;;;;;14.23;3.55;;;;;;;18.91;69.05;101790.13;2615068;31;20022;-48
2021/09/22 13:03:47;;;;;;;10.85;3.03;;;;;;;19.91;65.77;101796.03;2614723;36;20038;-44
2021/09/22 13:06:18;;;;;;;12.27;3.30;;;;;;;19.73;66.46;101787.28;2614959;36;20023;-42
2021/09/22 13:09:04;;;;;;;15.98;3.50;;;;;;;20.11;64.75;101784.00;2614905;31;20037;-48
2021/09/22 13:11:39;;;;;;;12.88;3.20;;;;;;;20.48;66.68;101777.22;2614929;31;20031;-43
2021/09/22 13:14:19;;;;;;;13.38;2.92;;;;;;;21.14;65.94;101790.28;2578928;36;2005814;-46
2021/09/22 13:16:51;;;;;;;12.68;3.50;;;;;;;21.39;62.25;101780.72;2615502;36;20432;-43
2021/09/22 13:19:20;;;;;;;13.73;3.22;;;;;;;21.27;65.03;101781.59;2614713;31;20069;-43
2021/09/22 13:21:49;;;;;;;14.93;3.10;;;;;;;20.66;66.87;101770.28;2614872;31;20035;-44
2021/09/22 13:24:23;;;;;;;17.40;3.60;;;;;;;20.96;64.14;101770.31;2615001;36;20166;-43
2021/09/22 13:26:55;;;;;;;12.50;3.53;;;;;;;21.40;60.80;101765.94;2615520;31;20034;-46
2021/09/22 13:29:23;;;;;;;12.98;3.05;;;;;;;21.07;64.52;101765.94;2615803;31;20030;-43
2021/09/22 13:31:54;;;;;;;11.82;2.85;;;;;;;21.51;62.26;101767.69;2615496;31;20038;-47
2021/09/22 13:34:27;;;;;;;13.55;2.95;;;;;;;21.17;64.04;101760.75;2615369;31;20030;-43
2021/09/22 13:36:57;;;;;;;13.80;2.85;;;;;;;20.64;64.20;101757.28;2614692;36;20061;-43
2021/09/22 13:39:24;;;;;;;9.95;3.40;;;;;;;20.72;66.21;101759.91;2615249;31;20133;-47
2021/09/22 13:41:53;;;;;;;12.43;3.40;;;;;;;20.19;66.89;101758.00;2615303;31;20046;-47
2021/09/22 13:44:20;;;;;;;15.82;3.40;;;;;;;19.92;66.77;101746.66;2615194;31;20053;-46
2021/09/22 13:46:49;;;;;;;15.18;3.95;;;;;;;20.66;64.39;101746.84;2614451;36;20034;-43
2021/09/22 13:49:20;;;;;;;12.65;3.30;;;;;;;20.40;65.12;101752.00;2614843;36;20031;-43
2021/09/22 13:51:49;;;;;;;13.23;3.25;;;;;;;22.06;61.63;101744.00;2614874;36;20022;-43